Fujishiro Maru — JD2313 — position and weather

sailwx.info

Track history (hours):
 
Tides and Currents Weather Stations Pressure Air Temp Water Temp Dewpoint Dewpoint Depression Visibility Wind Speed Wind Dir Waves Ship Positions

Fujishiro Maru

Last reported at 2017-Oct-20 23:44 UTC. Time now 2017-Oct-22 17:14 UTC.
Position N 34°13' E 135°06'.

Length 49 m.

Type: Tanker. MMSI: 431301819.

Date/timePositionNaut miles runAvg speedWind from/ knotsBaromVisibWave heightAir tempDewpointWater temp
2017-Oct-20 23:44N 34°13' E 135°06'510.8
2017-Oct-20 23:17N 34°09' E 135°10'2 1.3
2017-Oct-20 22:06N 34°09' E 135°12'0 0.0
2017-Oct-20 21:51N 34°09' E 135°12'0 0.0
2017-Oct-20 21:27N 34°09' E 135°12'0 0.0
2017-Oct-20 21:00N 34°09' E 135°12'0 0.0
2017-Oct-20 20:18N 34°09' E 135°12'0 0.0
2017-Oct-20 20:00N 34°09' E 135°12'0 0.0
2017-Oct-20 19:15N 34°09' E 135°12'0 0.0
2017-Oct-20 19:00N 34°09' E 135°12'0 0.0
2017-Oct-20 18:24N 34°09' E 135°12'0 0.0
2017-Oct-20 17:57N 34°09' E 135°12'0 0.0
2017-Oct-20 17:12N 34°09' E 135°12'0 0.0
2017-Oct-20 16:54N 34°09' E 135°12'0 0.0
2017-Oct-20 16:30N 34°09' E 135°12'0 0.0
2017-Oct-20 15:27N 34°09' E 135°12'0 0.0
2017-Oct-20 14:36N 34°09' E 135°12'0 0.1
2017-Oct-20 14:27N 34°09' E 135°12'  
2017-Oct-17 06:11N 34°09' E 135°12'1 4.8
2017-Oct-17 05:58N 34°09' E 135°11'5 0.2
2017-Oct-16 09:10N 34°10' E 135°06'210.9
2017-Oct-16 09:00N 34°12' E 135°05'32 3.4
2017-Oct-15 23:32N 34°39' E 135°26'0 9.3
2017-Oct-15 23:30N 34°39' E 135°26'4 0.5
2017-Oct-15 14:51N 34°35' E 135°23'209 7.2
2017-Oct-14 09:58N 35°04' E 139°35'611.2
2017-Oct-14 09:27N 35°07' E 139°41'511.7
2017-Oct-14 08:59N 35°11' E 139°45'710.4
2017-Oct-14 08:16N 35°19' E 139°43'310.8
2017-Oct-14 08:00N 35°21' E 139°42'610.8
2017-Oct-14 07:24N 35°28' E 139°42'5 0.6
2017-Oct-13 21:43N 35°23' E 139°46'6 9.9
2017-Oct-13 21:09N 35°18' E 139°45'310.1
2017-Oct-13 20:53N 35°15' E 139°47'4 9.9
2017-Oct-13 20:31N 35°12' E 139°47'5 9.6
2017-Oct-13 19:59N 35°07' E 139°45'510.2
2017-Oct-13 19:29N 35°03' E 139°40'  
Track history (hours):
 
Tides and Currents Weather Stations Pressure Air Temp Water Temp Dewpoint Dewpoint Depression Visibility Wind Speed Wind Dir Waves Ship Positions

Fujishiro Maru

Last reported at 2017-Oct-20 23:44 UTC. Time now 2017-Oct-22 17:14 UTC.
Position N 34°13' E 135°06'.

Length 49 m.

Type: Tanker. MMSI: 431301819.

Date/timePositionNaut miles runAvg speedWind from/ knotsBaromVisibWave heightAir tempDewpointWater temp
2017-Oct-20 23:44N 34°13' E 135°06'510.8
2017-Oct-20 23:17N 34°09' E 135°10'2 1.3
2017-Oct-20 22:06N 34°09' E 135°12'0 0.0
2017-Oct-20 21:51N 34°09' E 135°12'0 0.0
2017-Oct-20 21:27N 34°09' E 135°12'0 0.0
2017-Oct-20 21:00N 34°09' E 135°12'0 0.0
2017-Oct-20 20:18N 34°09' E 135°12'0 0.0
2017-Oct-20 20:00N 34°09' E 135°12'0 0.0
2017-Oct-20 19:15N 34°09' E 135°12'0 0.0
2017-Oct-20 19:00N 34°09' E 135°12'0 0.0
2017-Oct-20 18:24N 34°09' E 135°12'0 0.0
2017-Oct-20 17:57N 34°09' E 135°12'0 0.0
2017-Oct-20 17:12N 34°09' E 135°12'0 0.0
2017-Oct-20 16:54N 34°09' E 135°12'0 0.0
2017-Oct-20 16:30N 34°09' E 135°12'0 0.0
2017-Oct-20 15:27N 34°09' E 135°12'0 0.0
2017-Oct-20 14:36N 34°09' E 135°12'0 0.1
2017-Oct-20 14:27N 34°09' E 135°12'  
2017-Oct-17 06:11N 34°09' E 135°12'1 4.8
2017-Oct-17 05:58N 34°09' E 135°11'5 0.2
2017-Oct-16 09:10N 34°10' E 135°06'210.9
2017-Oct-16 09:00N 34°12' E 135°05'32 3.4
2017-Oct-15 23:32N 34°39' E 135°26'0 9.3
2017-Oct-15 23:30N 34°39' E 135°26'4 0.5
2017-Oct-15 14:51N 34°35' E 135°23'209 7.2
2017-Oct-14 09:58N 35°04' E 139°35'611.2
2017-Oct-14 09:27N 35°07' E 139°41'511.7
2017-Oct-14 08:59N 35°11' E 139°45'710.4
2017-Oct-14 08:16N 35°19' E 139°43'310.8
2017-Oct-14 08:00N 35°21' E 139°42'610.8
2017-Oct-14 07:24N 35°28' E 139°42'5 0.6
2017-Oct-13 21:43N 35°23' E 139°46'6 9.9
2017-Oct-13 21:09N 35°18' E 139°45'310.1
2017-Oct-13 20:53N 35°15' E 139°47'4 9.9
2017-Oct-13 20:31N 35°12' E 139°47'5 9.6
2017-Oct-13 19:59N 35°07' E 139°45'510.2
2017-Oct-13 19:29N 35°03' E 139°40'  

Dump ship's entire track history